Detall de PIREP

Printer-friendly versionPDF version

[2013/01/22 10:39:00]
Flight IATA:CT3232
Pilot Number:042
Company ICAO:CAT
Aircraft Type:B763/F
PAX:110
Departing Airport: LEPA
Destination Airport: LEMD
Alternate Airport:LEMG
Online: VATSIM
Route:EPAMA UN733 PRADO
Flight Level:F330
No Slew and time accel
No pause
Crash detect
Detect pilot in Cockpit between each 30 and 45 minutes
10:39 Zero fuel Weight: 197001 Lbs, Fuel Weight: 161708 Lbs
10:39 VATSIM:LEPA 221030Z 25020KT 9999 FEW040 SCT045 13/04 Q1011 NOSIG
10:39 VATSIM:LEMD 221030Z 22011G22KT 200V280 5000 -RA BR SCT008 BKN012 04/03 Q1007 NOSIG
10:39 VOICE CATALONIAN
10:47 Parking Brakes off
10:55 Take-off
10:55 Take off Weight: 356315 Lbs
10:55 Wind: 232º @ 008 Knots Heading: 238º
10:55 POS N39º 33´ 10´´ E002º 43´ 23´´
10:55 Gear Up: 190 Knots
10:55 Flaps:4 at 190 Knots
10:55 Flaps:3 at 208 Knots
10:56 Flaps:2 at 215 Knots
10:56 Flaps:0 at 245 Knots
11:07TOC
11:07 Fuel Weight: 153095 Lb
11:10 Wind:301º@063 Knots Heading: 270º Ground Speed: 405 Knots Altitude 32972 ft
11:25 Wind:298º@058 Knots Heading: 299º Ground Speed: 403 Knots Altitude 32933 ft
11:27 TOD
11:27 Fuel Weight: 149536 Lb
11:40 Wind:297º@026 Knots Heading: 326º Ground Speed: 317 Knots Altitude 17227 ft
11:41 Flaps:1 at 229 Knots
11:48 Flaps:2 at 219 Knots
11:52 Flaps:3 at 205 Knots
11:55 Wind:239º@007 Knots Heading: 180º Ground Speed: 189 Knots Altitude 4619 ft
11:55 Gear Down: 184 Knots
11:55 Flaps:4 at 184 Knots
11:55 Flaps:6 at 184 Knots
11:55 Flaps:4 at 169 Knots
11:55 Flaps:6 at 169 Knots
11:57 TouchDown:Rate -234 ft/min Speed: 153 Knots
11:58 VATSIM:LEMD 221141Z 31012KT 4000 RA FEW008 BKN013 03/02 Q1007 NOSIG
11:58 Land
11:58 Wind:244º@016 Knots
11:58 Heading: 176º
11:58 Flight Duration: 01:03
11:58 Landing Weight: 343071 Lbs
11:58POS N40º 30´ 37´´ W003º 33´ 34´´
12:10 Parking brakes on
12:10 Block to Block Duration: 01:23
12:10 Final Fuel: 143536 Lbls
12:10 Spent Fuel: 18172 Lbls
12:10 Flight Length: 343 NM
12:10 TOD Land Length: 139 NM

Exportar CSV

Powered by Drupal - Modified by Danger4k